TimePST,TemperatureF,Dew PointF,Humidity,Sea Level PressureIn,VisibilityMPH,Wind Direction,Wind SpeedMPH,Gust SpeedMPH,PrecipitationIn,Events,Conditions,WindDirDegrees,DateUTC
12:53 AM,34.0,30.0,85,30.08,10.0,Calm,Calm,-,0.00,Rain,Light Rain,0,2013-01-24 08:53:00
1:18 AM,33.8,30.2,87,30.14,3.0,Calm,Calm,-,0.00,Snow,Light Snow,0,2013-01-24 09:18:00
1:53 AM,34.0,30.0,85,30.09,3.0,Calm,Calm,-,0.01,Snow,Light Snow,0,2013-01-24 09:53:00
2:15 AM,33.8,30.2,87,30.14,5.0,Calm,Calm,-,0.01,Snow,Light Snow,0,2013-01-24 10:15:00
2:53 AM,34.0,30.9,89,30.10,9.0,Calm,Calm,-,0.01,Rain,Light Rain,0,2013-01-24 10:53:00
3:53 AM,34.0,30.9,89,30.08,9.0,Calm,Calm,-,0.00,Rain,Light Rain,0,2013-01-24 11:53:00
4:53 AM,34.0,30.9,89,30.10,7.0,Calm,Calm,-,0.00,Rain,Light Rain,0,2013-01-24 12:53:00
5:16 AM,33.8,30.2,87,30.15,4.0,Calm,Calm,-,0.01,Rain,Light Rain,0,2013-01-24 13:16:00
5:30 AM,33.8,30.2,87,30.15,4.0,Calm,Calm,-,0.01,Rain,Light Rain,0,2013-01-24 13:30:00
5:38 AM,33.8,30.2,87,30.15,4.0,Calm,Calm,-,0.02,Rain,Light Rain,0,2013-01-24 13:38:00
5:53 AM,34.0,30.9,89,30.13,4.0,Calm,Calm,-,0.02,Rain,Light Rain,0,2013-01-24 13:53:00
6:07 AM,33.8,30.2,87,30.16,4.0,Calm,Calm,-,0.00,Rain,Light Rain,0,2013-01-24 14:07:00
6:09 AM,33.8,30.2,87,30.16,5.0,Calm,Calm,-,0.00,Rain,Light Rain,0,2013-01-24 14:09:00
6:32 AM,33.8,30.2,87,30.16,5.0,Calm,Calm,-,0.00,Rain,Light Rain,0,2013-01-24 14:32:00
6:39 AM,33.8,30.2,87,30.16,5.0,Calm,Calm,-,0.00,Rain,Light Rain,0,2013-01-24 14:39:00
6:46 AM,33.8,30.2,87,30.16,4.0,Calm,Calm,-,0.00,Rain,Light Rain,0,2013-01-24 14:46:00
6:53 AM,34.0,30.9,89,30.12,4.0,Calm,Calm,-,0.00,Rain,Light Rain,0,2013-01-24 14:53:00
7:26 AM,33.8,30.2,87,30.16,5.0,Calm,Calm,-,0.01,,Overcast,0,2013-01-24 15:26:00
7:28 AM,33.8,30.2,87,30.16,4.0,Calm,Calm,-,0.01,,Overcast,0,2013-01-24 15:28:00
7:37 AM,33.8,30.2,87,30.16,3.0,Calm,Calm,-,0.01,,Overcast,0,2013-01-24 15:37:00
7:53 AM,35.1,30.9,85,30.13,5.0,Calm,Calm,-,0.01,,Overcast,0,2013-01-24 15:53:00
8:00 AM,35.6,32.0,87,30.16,5.0,Calm,Calm,-,N/A,,Overcast,0,2013-01-24 16:00:00
8:53 AM,37.0,33.1,86,30.15,6.0,Calm,Calm,-,0.00,,Overcast,0,2013-01-24 16:53:00
9:27 AM,37.4,33.8,87,30.20,6.0,Calm,Calm,-,0.00,,Overcast,0,2013-01-24 17:27:00
9:53 AM,37.0,34.0,89,30.18,6.0,Calm,Calm,-,0.00,Rain,Light Rain,0,2013-01-24 17:53:00
10:26 AM,39.2,33.8,81,30.21,10.0,NNE,4.6,-,0.00,,Overcast,30,2013-01-24 18:26:00
10:53 AM,39.9,35.1,83,30.17,10.0,Calm,Calm,-,0.00,,Overcast,0,2013-01-24 18:53:00
11:53 AM,39.9,35.1,83,30.17,10.0,Calm,Calm,-,0.00,,Overcast,0,2013-01-24 19:53:00
12:45 PM,41.0,35.6,81,30.18,10.0,Calm,Calm,-,0.01,Rain,Light Rain,0,2013-01-24 20:45:00
12:53 PM,41.0,36.0,82,30.15,10.0,NNE,3.5,-,0.01,Rain,Light Rain,20,2013-01-24 20:53:00
1:53 PM,39.9,36.0,86,30.16,5.0,Calm,Calm,-,0.01,Rain,Light Rain,0,2013-01-24 21:53:00
2:12 PM,39.2,35.6,87,30.19,4.0,Calm,Calm,-,0.00,Rain,Light Rain,0,2013-01-24 22:12:00
2:46 PM,39.2,35.6,87,30.19,2.5,Calm,Calm,-,0.02,Rain,Light Rain,0,2013-01-24 22:46:00
2:53 PM,39.0,36.0,89,30.17,2.0,Calm,Calm,-,0.03,Rain,Light Rain,0,2013-01-24 22:53:00
3:10 PM,39.2,35.6,87,30.19,2.5,Calm,Calm,-,0.01,Rain,Light Rain,0,2013-01-24 23:10:00
3:24 PM,39.2,35.6,87,30.20,0.8,Calm,Calm,-,0.02,Rain,Light Rain,0,2013-01-24 23:24:00
3:53 PM,39.0,36.0,89,30.17,1.2,Calm,Calm,-,0.03,Rain,Light Rain,0,2013-01-24 23:53:00
4:11 PM,39.2,35.6,87,30.20,2.0,Calm,Calm,-,0.01,Rain,Light Rain,0,2013-01-25 00:11:00
4:21 PM,39.2,35.6,87,30.20,3.0,Calm,Calm,-,0.01,Rain,Light Rain,0,2013-01-25 00:21:00
4:27 PM,37.4,35.6,93,30.20,0.8,Calm,Calm,-,0.01,Rain,Light Rain,0,2013-01-25 00:27:00
4:53 PM,37.9,34.0,86,30.19,0.5,Calm,Calm,-,0.01,Fog-Rain,Light Rain,0,2013-01-25 00:53:00
5:00 PM,37.4,33.8,87,30.21,0.8,Calm,Calm,-,0.00,Rain,Light Rain,0,2013-01-25 01:00:00
5:09 PM,37.4,33.8,87,30.21,1.2,Calm,Calm,-,0.00,Rain,Light Rain,0,2013-01-25 01:09:00
5:17 PM,37.4,33.8,87,30.21,3.0,Calm,Calm,-,0.01,Rain,Light Rain,0,2013-01-25 01:17:00
5:24 PM,37.4,33.8,87,30.21,2.5,Calm,Calm,-,0.01,Rain,Light Rain,0,2013-01-25 01:24:00
5:36 PM,37.4,33.8,87,30.21,1.2,Calm,Calm,-,0.01,Rain,Light Rain,0,2013-01-25 01:36:00
5:50 PM,37.4,33.8,87,30.22,1.0,East,27.6,54.1,0.01,Rain,Light Rain,90,2013-01-25 01:50:00
5:53 PM,37.0,34.0,89,30.20,1.0,South,8.1,54.1,0.01,Rain,Light Rain,180,2013-01-25 01:53:00
6:08 PM,35.6,33.8,93,30.22,2.0,Calm,Calm,-,0.00,Rain,Light Rain,0,2013-01-25 02:08:00
6:15 PM,35.6,33.8,93,30.22,1.5,Calm,Calm,-,0.00,Rain,Light Rain,0,2013-01-25 02:15:00
6:21 PM,37.4,33.8,87,30.23,3.0,Calm,Calm,-,0.00,Rain,Light Rain,0,2013-01-25 02:21:00
6:29 PM,37.4,33.8,87,30.23,1.8,Calm,Calm,-,0.02,Rain,Rain,0,2013-01-25 02:29:00
6:53 PM,37.0,34.0,89,30.22,1.5,Calm,Calm,-,0.04,Rain,Light Rain,0,2013-01-25 02:53:00
6:59 PM,35.6,33.8,93,30.23,0.8,Calm,Calm,-,0.00,Rain,Light Rain,0,2013-01-25 02:59:00
7:18 PM,35.6,33.8,93,30.24,1.8,Calm,Calm,-,0.01,Rain,Light Rain,0,2013-01-25 03:18:00
7:53 PM,36.0,33.1,89,30.22,1.8,Calm,Calm,-,0.08,Rain,Light Rain,0,2013-01-25 03:53:00
8:06 PM,35.6,33.8,93,30.24,2.5,Calm,Calm,-,0.01,Rain,Light Rain,0,2013-01-25 04:06:00
8:10 PM,35.6,33.8,93,30.24,5.0,Calm,Calm,-,0.01,Rain,Light Rain,0,2013-01-25 04:10:00
8:28 PM,35.6,33.8,93,30.24,2.5,Calm,Calm,-,0.01,Rain,Light Rain,0,2013-01-25 04:28:00
8:43 PM,35.6,33.8,93,30.24,1.0,Calm,Calm,-,0.01,Rain,Light Rain,0,2013-01-25 04:43:00
8:53 PM,36.0,33.1,89,30.22,1.8,Calm,Calm,-,0.01,Rain,Light Rain,0,2013-01-25 04:53:00
8:59 PM,35.6,33.8,93,30.24,3.0,Calm,Calm,-,0.00,Rain,Light Rain,0,2013-01-25 04:59:00
9:10 PM,35.6,33.8,93,30.24,5.0,Calm,Calm,-,0.00,,Overcast,0,2013-01-25 05:10:00
9:13 PM,35.6,33.8,93,30.24,3.0,Calm,Calm,-,0.00,,Overcast,0,2013-01-25 05:13:00
9:16 PM,35.6,33.8,93,30.24,2.0,South,3.5,-,0.00,,Overcast,180,2013-01-25 05:16:00
9:23 PM,35.6,33.8,93,30.24,1.2,South,4.6,-,0.00,Rain,Light Rain,180,2013-01-25 05:23:00
9:32 PM,35.6,33.8,93,30.24,3.0,South,3.5,-,0.00,Rain,Light Rain,190,2013-01-25 05:32:00
9:51 PM,35.6,33.8,93,30.24,5.0,Calm,Calm,-,0.00,,Overcast,0,2013-01-25 05:51:00
9:53 PM,36.0,33.1,89,30.22,5.0,Calm,Calm,-,0.00,,Overcast,0,2013-01-25 05:53:00
10:03 PM,35.6,32.0,87,30.24,6.0,Calm,Calm,-,N/A,,Overcast,0,2013-01-25 06:03:00
10:13 PM,35.6,32.0,87,30.24,2.5,Calm,Calm,-,N/A,,Overcast,0,2013-01-25 06:13:00
10:23 PM,35.6,32.0,87,30.24,4.0,Calm,Calm,-,N/A,,Overcast,0,2013-01-25 06:23:00
10:33 PM,35.6,32.0,87,30.24,5.0,Calm,Calm,-,N/A,,Overcast,0,2013-01-25 06:33:00
10:48 PM,35.6,32.0,87,30.24,2.5,Calm,Calm,-,N/A,,Overcast,0,2013-01-25 06:48:00
10:53 PM,36.0,32.0,86,30.21,2.0,Calm,Calm,-,N/A,,Overcast,0,2013-01-25 06:53:00
10:59 PM,35.6,32.0,87,30.24,5.0,Calm,Calm,-,0.00,Rain,Light Rain,0,2013-01-25 06:59:00
11:09 PM,35.6,32.0,87,30.24,4.0,Calm,Calm,-,0.00,,Overcast,0,2013-01-25 07:09:00
11:14 PM,35.6,32.0,87,30.24,5.0,Calm,Calm,-,0.00,,Overcast,0,2013-01-25 07:14:00
11:29 PM,35.6,32.0,87,30.24,2.0,Calm,Calm,-,0.00,,Overcast,0,2013-01-25 07:29:00
11:33 PM,35.6,32.0,87,30.24,0.8,Calm,Calm,-,0.00,,Overcast,0,2013-01-25 07:33:00
11:43 PM,33.8,32.0,93,30.24,0.2,Calm,Calm,-,0.00,Fog,Fog,0,2013-01-25 07:43:00
11:53 PM,34.0,32.0,92,30.22,0.2,Calm,Calm,-,0.00,Fog,Fog,0,2013-01-25 07:53:00